Adams Basin, New York
Current Conditions -  °F | °C
As of 9:54 PM on Monday 22 Dec 2014 (Local Time) from KROC Reporting Station
Overcast Overcast  
Wind Chill: 29°   Ceiling: 8500
Heat Index: 35°   Visibility: 10mi
Dew Point: 26°   Wind: 7mph
Humidity: 70%   Direction: 150°SSE
Pressure: 30.08"   Gusts: NA
Location:  43.2°N, 77.85°W
Report Text: KROC 230254Z 15006KT 10SM BKN085 OVC180 02/M03 A3008 RMK AO2 SLP195 T00171033 55009
Loading
Personal Weather Stations






























Interactive Weather Map New forecast layout! Learn more

10-Day Weather Forecast

Advertisements
Track Severe Weather on mobile